sensor_id;sensor_type;location;lat;lon;timestamp;pressure;altitude;pressure_sealevel;temperature;humidity
11621;BME280;5866;49.094;11.900;2024-01-30T00:01:08;97669.25;;;2.17;100.00
11621;BME280;5866;49.094;11.900;2024-01-30T00:03:37;97669.72;;;2.25;100.00
11621;BME280;5866;49.094;11.900;2024-01-30T00:06:05;97666.56;;;2.35;100.00
11621;BME280;5866;49.094;11.900;2024-01-30T00:08:33;97667.94;;;2.25;100.00
11621;BME280;5866;49.094;11.900;2024-01-30T00:11:00;97665.47;;;2.22;100.00
11621;BME280;5866;49.094;11.900;2024-01-30T00:13:28;97665.00;;;2.14;100.00
11621;BME280;5866;49.094;11.900;2024-01-30T00:15:56;97664.41;;;2.09;100.00
11621;BME280;5866;49.094;11.900;2024-01-30T00:18:23;97666.53;;;2.01;100.00
11621;BME280;5866;49.094;11.900;2024-01-30T00:20:52;97658.94;;;1.97;100.00
11621;BME280;5866;49.094;11.900;2024-01-30T00:23:20;97664.50;;;1.89;100.00
11621;BME280;5866;49.094;11.900;2024-01-30T00:25:47;97673.00;;;1.94;100.00
11621;BME280;5866;49.094;11.900;2024-01-30T00:28:15;97669.13;;;1.84;100.00
11621;BME280;5866;49.094;11.900;2024-01-30T00:30:43;97661.94;;;1.71;100.00
11621;BME280;5866;49.094;11.900;2024-01-30T00:33:11;97661.44;;;1.81;100.00
11621;BME280;5866;49.094;11.900;2024-01-30T00:35:38;97663.13;;;1.82;100.00
11621;BME280;5866;49.094;11.900;2024-01-30T00:38:07;97667.56;;;1.80;100.00
11621;BME280;5866;49.094;11.900;2024-01-30T00:40:35;97661.94;;;1.71;100.00
11621;BME280;5866;49.094;11.900;2024-01-30T00:43:03;97661.38;;;1.64;100.00
11621;BME280;5866;49.094;11.900;2024-01-30T00:45:30;97660.47;;;1.65;100.00
11621;BME280;5866;49.094;11.900;2024-01-30T00:47:58;97652.63;;;1.65;100.00
11621;BME280;5866;49.094;11.900;2024-01-30T00:50:25;97658.75;;;1.64;100.00
11621;BME280;5866;49.094;11.900;2024-01-30T00:52:53;97660.53;;;1.63;100.00
11621;BME280;5866;49.094;11.900;2024-01-30T00:55:22;97660.00;;;1.57;100.00
11621;BME280;5866;49.094;11.900;2024-01-30T00:57:49;97653.34;;;1.50;100.00
11621;BME280;5866;49.094;11.900;2024-01-30T01:00:17;97662.88;;;1.51;100.00
11621;BME280;5866;49.094;11.900;2024-01-30T01:02:47;97660.72;;;1.42;100.00
11621;BME280;5866;49.094;11.900;2024-01-30T01:05:14;97661.69;;;1.39;100.00
11621;BME280;5866;49.094;11.900;2024-01-30T01:07:42;97654.53;;;1.43;100.00
11621;BME280;5866;49.094;11.900;2024-01-30T01:10:10;97662.66;;;1.37;100.00
11621;BME280;5866;49.094;11.900;2024-01-30T01:12:41;97661.13;;;1.33;100.00
11621;BME280;5866;49.094;11.900;2024-01-30T01:15:09;97659.28;;;1.35;100.00
11621;BME280;5866;49.094;11.900;2024-01-30T01:17:37;97660.84;;;1.39;100.00
11621;BME280;5866;49.094;11.900;2024-01-30T01:20:06;97650.53;;;1.36;100.00
11621;BME280;5866;49.094;11.900;2024-01-30T01:22:34;97654.53;;;1.43;100.00
11621;BME280;5866;49.094;11.900;2024-01-30T01:25:02;97652.69;;;1.45;100.00
11621;BME280;5866;49.094;11.900;2024-01-30T01:27:30;97651.16;;;1.41;100.00
11621;BME280;5866;49.094;11.900;2024-01-30T01:30:00;97654.41;;;1.46;100.00
11621;BME280;5866;49.094;11.900;2024-01-30T01:32:28;97651.03;;;1.44;100.00
11621;BME280;5866;49.094;11.900;2024-01-30T01:34:56;97655.75;;;1.36;100.00
11621;BME280;5866;49.094;11.900;2024-01-30T01:37:23;97651.59;;;1.32;100.00
11621;BME280;5866;49.094;11.900;2024-01-30T01:39:53;97652.50;;;1.31;100.00
11621;BME280;5866;49.094;11.900;2024-01-30T01:42:20;97655.91;;;1.33;100.00
11621;BME280;5866;49.094;11.900;2024-01-30T01:44:48;97654.06;;;1.35;100.00
11621;BME280;5866;49.094;11.900;2024-01-30T01:47:18;97650.38;;;1.39;100.00
11621;BME280;5866;49.094;11.900;2024-01-30T01:49:45;97650.66;;;1.33;100.00
11621;BME280;5866;49.094;11.900;2024-01-30T01:52:13;97652.38;;;1.34;100.00
11621;BME280;5866;49.094;11.900;2024-01-30T01:54:41;97646.13;;;1.36;100.00
11621;BME280;5866;49.094;11.900;2024-01-30T01:57:09;97655.97;;;1.31;100.00
11621;BME280;5866;49.094;11.900;2024-01-30T01:59:37;97650.28;;;1.40;100.00
11621;BME280;5866;49.094;11.900;2024-01-30T02:02:05;97644.03;;;1.44;100.00
11621;BME280;5866;49.094;11.900;2024-01-30T02:04:35;97638.50;;;1.50;100.00
11621;BME280;5866;49.094;11.900;2024-01-30T02:07:03;97644.03;;;1.44;100.00
11621;BME280;5866;49.094;11.900;2024-01-30T02:09:31;97641.47;;;1.43;100.00
11621;BME280;5866;49.094;11.900;2024-01-30T02:11:58;97641.00;;;1.35;100.00
11621;BME280;5866;49.094;11.900;2024-01-30T02:14:26;97629.06;;;1.29;100.00
11621;BME280;5866;49.094;11.900;2024-01-30T02:16:56;97638.66;;;1.29;100.00
11621;BME280;5866;49.094;11.900;2024-01-30T02:19:24;97634.56;;;1.23;100.00
11621;BME280;5866;49.094;11.900;2024-01-30T02:21:53;97640.63;;;1.24;100.00
11621;BME280;5866;49.094;11.900;2024-01-30T02:24:21;97646.78;;;1.23;100.00
11621;BME280;5866;49.094;11.900;2024-01-30T02:26:50;97647.78;;;1.20;100.00
11621;BME280;5866;49.094;11.900;2024-01-30T02:29:17;97649.09;;;0.92;100.00
11621;BME280;5866;49.094;11.900;2024-01-30T02:31:45;97641.13;;;0.95;100.00
11621;BME280;5866;49.094;11.900;2024-01-30T02:34:13;97647.00;;;1.18;100.00
11621;BME280;5866;49.094;11.900;2024-01-30T02:36:42;97637.38;;;1.37;100.00
11621;BME280;5866;49.094;11.900;2024-01-30T02:39:11;97629.66;;;1.53;100.00
11621;BME280;5866;49.094;11.900;2024-01-30T02:41:39;97622.88;;;1.49;100.00
11621;BME280;5866;49.094;11.900;2024-01-30T02:44:06;97633.16;;;1.35;100.00
11621;BME280;5866;49.094;11.900;2024-01-30T02:46:34;97646.38;;;1.32;100.00
11621;BME280;5866;49.094;11.900;2024-01-30T02:49:01;97650.09;;;1.26;100.00
11621;BME280;5866;49.094;11.900;2024-01-30T02:51:29;97648.72;;;1.19;100.00
11621;BME280;5866;49.094;11.900;2024-01-30T02:53:57;97645.38;;;1.16;100.00
11621;BME280;5866;49.094;11.900;2024-01-30T02:56:26;97642.75;;;1.16;100.00
11621;BME280;5866;49.094;11.900;2024-01-30T02:58:53;97649.03;;;1.12;100.00
11621;BME280;5866;49.094;11.900;2024-01-30T03:01:21;97638.88;;;1.06;100.00
11621;BME280;5866;49.094;11.900;2024-01-30T03:03:51;97639.81;;;1.05;100.00
11621;BME280;5866;49.094;11.900;2024-01-30T03:06:18;97639.22;;;0.98;100.00
11621;BME280;5866;49.094;11.900;2024-01-30T03:08:46;97638.94;;;1.04;100.00
11621;BME280;5866;49.094;11.900;2024-01-30T03:11:14;97638.75;;;1.09;100.00
11621;BME280;5866;49.094;11.900;2024-01-30T03:13:44;97642.59;;;0.82;100.00
11621;BME280;5866;49.094;11.900;2024-01-30T03:16:11;97642.03;;;0.94;100.00
11621;BME280;5866;49.094;11.900;2024-01-30T03:18:39;97640.06;;;0.99;100.00
11621;BME280;5866;49.094;11.900;2024-01-30T03:21:06;97640.06;;;0.99;100.00
11621;BME280;5866;49.094;11.900;2024-01-30T03:23:34;97646.28;;;0.96;100.00
11621;BME280;5866;49.094;11.900;2024-01-30T03:26:01;97643.88;;;0.92;100.00
11621;BME280;5866;49.094;11.900;2024-01-30T03:28:30;97642.09;;;0.53;100.00
11621;BME280;5866;49.094;11.900;2024-01-30T03:30:59;97647.06;;;0.39;100.00
11621;BME280;5866;49.094;11.900;2024-01-30T03:33:27;97637.78;;;0.72;100.00
11621;BME280;5866;49.094;11.900;2024-01-30T03:35:55;97631.44;;;0.97;100.00
11621;BME280;5866;49.094;11.900;2024-01-30T03:38:22;97637.38;;;0.61;100.00
11621;BME280;5866;49.094;11.900;2024-01-30T03:40:50;97630.31;;;0.84;100.00
11621;BME280;5866;49.094;11.900;2024-01-30T03:43:17;97638.09;;;1.04;100.00
11621;BME280;5866;49.094;11.900;2024-01-30T03:45:45;97634.41;;;1.08;100.00
11621;BME280;5866;49.094;11.900;2024-01-30T03:48:14;97625.25;;;0.99;100.00
11621;BME280;5866;49.094;11.900;2024-01-30T03:50:41;97626.94;;;1.00;100.00
11621;BME280;5866;49.094;11.900;2024-01-30T03:53:09;97624.81;;;0.90;100.00
11621;BME280;5866;49.094;11.900;2024-01-30T03:55:37;97631.13;;;0.65;100.00
11621;BME280;5866;49.094;11.900;2024-01-30T03:58:04;97631.41;;;0.78;100.00
11621;BME280;5866;49.094;11.900;2024-01-30T04:00:32;97625.78;;;0.87;100.00
11621;BME280;5866;49.094;11.900;2024-01-30T04:03:00;97619.56;;;0.71;100.00
11621;BME280;5866;49.094;11.900;2024-01-30T04:05:29;97625.38;;;0.77;100.00
11621;BME280;5866;49.094;11.900;2024-01-30T04:07:56;97620.94;;;0.79;100.00
11621;BME280;5866;49.094;11.900;2024-01-30T04:10:24;97619.41;;;0.74;100.00
11621;BME280;5866;49.094;11.900;2024-01-30T04:12:52;97628.88;;;0.76;100.00
11621;BME280;5866;49.094;11.900;2024-01-30T04:15:20;97634.00;;;0.59;100.00
11621;BME280;5866;49.094;11.900;2024-01-30T04:17:48;97634.09;;;0.76;100.00
11621;BME280;5866;49.094;11.900;2024-01-30T04:20:15;97624.09;;;0.86;100.00
11621;BME280;5866;49.094;11.900;2024-01-30T04:22:45;97621.63;;;0.83;100.00
11621;BME280;5866;49.094;11.900;2024-01-30T04:25:13;97619.09;;;0.82;100.00
11621;BME280;5866;49.094;11.900;2024-01-30T04:27:41;97611.47;;;0.77;100.00
11621;BME280;5866;49.094;11.900;2024-01-30T04:30:10;97610.88;;;0.70;100.00
11621;BME280;5866;49.094;11.900;2024-01-30T04:32:37;97611.38;;;0.78;100.00
11621;BME280;5866;49.094;11.900;2024-01-30T04:35:05;97613.88;;;0.82;100.00
11621;BME280;5866;49.094;11.900;2024-01-30T04:37:37;97609.06;;;0.72;100.00
11621;BME280;5866;49.094;11.900;2024-01-30T04:40:07;97611.94;;;0.46;100.00
11621;BME280;5866;49.094;11.900;2024-01-30T04:42:36;97608.94;;;0.55;100.00
11621;BME280;5866;49.094;11.900;2024-01-30T04:45:04;97613.13;;;0.59;100.00
11621;BME280;5866;49.094;11.900;2024-01-30T04:47:32;97607.19;;;0.36;100.00
11621;BME280;5866;49.094;11.900;2024-01-30T04:50:01;97609.72;;;0.77;100.00
11621;BME280;5866;49.094;11.900;2024-01-30T04:52:28;97601.94;;;1.13;100.00
11621;BME280;5866;49.094;11.900;2024-01-30T04:54:56;97609.91;;;1.29;100.00
11621;BME280;5866;49.094;11.900;2024-01-30T04:57:25;97613.63;;;1.60;100.00
11621;BME280;5866;49.094;11.900;2024-01-30T04:59:53;97613.50;;;1.45;100.00
11621;BME280;5866;49.094;11.900;2024-01-30T05:02:20;97615.06;;;1.12;100.00
11621;BME280;5866;49.094;11.900;2024-01-30T05:04:48;97618.03;;;1.04;100.00
11621;BME280;5866;49.094;11.900;2024-01-30T05:07:16;97610.97;;;1.25;100.00
11621;BME280;5866;49.094;11.900;2024-01-30T05:09:44;97614.56;;;1.22;100.00
11621;BME280;5866;49.094;11.900;2024-01-30T05:12:12;97614.03;;;1.51;100.00
11621;BME280;5866;49.094;11.900;2024-01-30T05:14:41;97621.69;;;1.56;100.00
11621;BME280;5866;49.094;11.900;2024-01-30T05:17:08;97616.75;;;1.50;100.00
11621;BME280;5866;49.094;11.900;2024-01-30T05:19:39;97617.81;;;1.46;100.00
11621;BME280;5866;49.094;11.900;2024-01-30T05:22:06;97608.72;;;1.36;100.00
11621;BME280;5866;49.094;11.900;2024-01-30T05:24:35;97602.38;;;1.23;100.00
11621;BME280;5866;49.094;11.900;2024-01-30T05:27:03;97602.28;;;1.06;100.00
11621;BME280;5866;49.094;11.900;2024-01-30T05:29:30;97604.22;;;1.02;100.00
11621;BME280;5866;49.094;11.900;2024-01-30T05:31:59;97605.56;;;0.92;100.00
11621;BME280;5866;49.094;11.900;2024-01-30T05:34:27;97622.81;;;1.13;100.00
11621;BME280;5866;49.094;11.900;2024-01-30T05:36:54;97624.47;;;0.97;100.00
11621;BME280;5866;49.094;11.900;2024-01-30T05:39:22;97619.38;;;0.94;100.00
11621;BME280;5866;49.094;11.900;2024-01-30T05:41:50;97632.00;;;1.03;100.00
11621;BME280;5866;49.094;11.900;2024-01-30T05:44:17;97626.94;;;0.82;100.00
11621;BME280;5866;49.094;11.900;2024-01-30T05:46:45;97642.50;;;0.64;100.00
11621;BME280;5866;49.094;11.900;2024-01-30T05:49:14;97639.91;;;0.83;100.00
11621;BME280;5866;49.094;11.900;2024-01-30T05:51:41;97643.03;;;0.91;100.00
11621;BME280;5866;49.094;11.900;2024-01-30T05:54:09;97645.28;;;0.99;100.00
11621;BME280;5866;49.094;11.900;2024-01-30T05:56:36;97650.25;;;1.23;100.00
11621;BME280;5866;49.094;11.900;2024-01-30T05:59:04;97643.88;;;1.47;100.00
11621;BME280;5866;49.094;11.900;2024-01-30T06:01:31;97643.59;;;1.53;100.00
11621;BME280;5866;49.094;11.900;2024-01-30T06:03:59;97647.22;;;1.68;100.00
11621;BME280;5866;49.094;11.900;2024-01-30T06:06:29;97651.56;;;1.69;100.00
11621;BME280;5866;49.094;11.900;2024-01-30T06:08:56;97642.94;;;1.67;100.00
11621;BME280;5866;49.094;11.900;2024-01-30T06:11:24;97644.59;;;1.14;100.00
11621;BME280;5866;49.094;11.900;2024-01-30T06:13:51;97647.00;;;1.37;100.00
11621;BME280;5866;49.094;11.900;2024-01-30T06:16:19;97643.97;;;1.46;100.00
11621;BME280;5866;49.094;11.900;2024-01-30T06:18:47;97639.22;;;1.54;100.00
11621;BME280;5866;49.094;11.900;2024-01-30T06:21:15;97643.88;;;1.47;100.00
11621;BME280;5866;49.094;11.900;2024-01-30T06:23:44;97639.84;;;1.40;100.00
11621;BME280;5866;49.094;11.900;2024-01-30T06:26:12;97642.91;;;1.13;100.00
11621;BME280;5866;49.094;11.900;2024-01-30T06:28:39;97643.19;;;1.07;100.00
11621;BME280;5866;49.094;11.900;2024-01-30T06:31:07;97650.19;;;1.06;100.00
11621;BME280;5866;49.094;11.900;2024-01-30T06:33:34;97652.88;;;1.42;100.00
11621;BME280;5866;49.094;11.900;2024-01-30T06:36:02;97651.38;;;1.18;100.00
11621;BME280;5866;49.094;11.900;2024-01-30T06:38:30;97659.97;;;1.20;100.00
11621;BME280;5866;49.094;11.900;2024-01-30T06:40:59;97650.09;;;1.08;100.00
11621;BME280;5866;49.094;11.900;2024-01-30T06:43:26;97658.50;;;1.33;100.00
11621;BME280;5866;49.094;11.900;2024-01-30T06:45:54;97657.22;;;1.60;100.00
11621;BME280;5866;49.094;11.900;2024-01-30T06:48:22;97657.94;;;1.45;100.00
11621;BME280;5866;49.094;11.900;2024-01-30T06:50:49;97650.25;;;1.42;100.00
11621;BME280;5866;49.094;11.900;2024-01-30T06:53:17;97650.47;;;1.19;100.00
11621;BME280;5866;49.094;11.900;2024-01-30T06:55:45;97656.38;;;1.22;100.00
11621;BME280;5866;49.094;11.900;2024-01-30T06:58:14;97650.94;;;1.45;100.00
11621;BME280;5866;49.094;11.900;2024-01-30T07:00:42;97659.84;;;1.60;100.00
11621;BME280;5866;49.094;11.900;2024-01-30T07:03:09;97666.41;;;1.50;100.00
11621;BME280;5866;49.094;11.900;2024-01-30T07:05:37;97666.97;;;1.56;100.00
11621;BME280;5866;49.094;11.900;2024-01-30T07:08:05;97667.88;;;1.55;100.00
11621;BME280;5866;49.094;11.900;2024-01-30T07:10:33;97672.69;;;1.65;100.00
11621;BME280;5866;49.094;11.900;2024-01-30T07:13:01;97666.59;;;1.64;100.00
11621;BME280;5866;49.094;11.900;2024-01-30T07:15:31;97672.16;;;1.39;100.00
11621;BME280;5866;49.094;11.900;2024-01-30T07:17:59;97673.66;;;1.81;100.00
11621;BME280;5866;49.094;11.900;2024-01-30T07:20:27;97667.56;;;1.80;100.00
11621;BME280;5866;49.094;11.900;2024-01-30T07:22:57;97674.50;;;1.81;100.00
11621;BME280;5866;49.094;11.900;2024-01-30T07:25:24;97665.31;;;2.08;100.00
11621;BME280;5866;49.094;11.900;2024-01-30T07:27:53;97674.72;;;2.12;100.00
11621;BME280;5866;49.094;11.900;2024-01-30T07:30:21;97671.97;;;2.32;100.00
11621;BME280;5866;49.094;11.900;2024-01-30T07:32:51;97674.44;;;2.53;100.00
11621;BME280;5866;49.094;11.900;2024-01-30T07:35:18;97666.25;;;2.76;100.00
11621;BME280;5866;49.094;11.900;2024-01-30T07:37:46;97671.13;;;2.32;100.00
11621;BME280;5866;49.094;11.900;2024-01-30T07:40:14;97673.69;;;2.66;100.00
11621;BME280;5866;49.094;11.900;2024-01-30T07:42:41;97674.78;;;2.79;100.00
11621;BME280;5866;49.094;11.900;2024-01-30T07:45:09;97671.91;;;3.01;100.00
11621;BME280;5866;49.094;11.900;2024-01-30T07:47:37;97682.00;;;3.24;100.00
11621;BME280;5866;49.094;11.900;2024-01-30T07:50:07;97682.78;;;3.26;100.00
11621;BME280;5866;49.094;11.900;2024-01-30T07:52:35;97679.72;;;3.34;100.00
11621;BME280;5866;49.094;11.900;2024-01-30T07:55:03;97680.53;;;3.82;100.00
11621;BME280;5866;49.094;11.900;2024-01-30T07:57:31;97682.53;;;4.38;100.00
11621;BME280;5866;49.094;11.900;2024-01-30T07:59:59;97686.50;;;4.75;100.00
11621;BME280;5866;49.094;11.900;2024-01-30T08:02:26;97687.66;;;4.85;100.00
11621;BME280;5866;49.094;11.900;2024-01-30T08:04:54;97690.53;;;4.80;100.00
11621;BME280;5866;49.094;11.900;2024-01-30T08:07:23;97691.25;;;5.12;100.00
11621;BME280;5866;49.094;11.900;2024-01-30T08:09:51;97689.16;;;4.89;100.00
11621;BME280;5866;49.094;11.900;2024-01-30T08:12:18;97692.09;;;5.13;100.00
11621;BME280;5866;49.094;11.900;2024-01-30T08:14:46;97687.03;;;5.38;100.00
11621;BME280;5866;49.094;11.900;2024-01-30T08:17:13;97679.75;;;5.55;100.00
11621;BME280;5866;49.094;11.900;2024-01-30T08:19:41;97686.88;;;5.82;100.00
11621;BME280;5866;49.094;11.900;2024-01-30T08:22:09;97690.34;;;6.23;100.00
11621;BME280;5866;49.094;11.900;2024-01-30T08:24:38;97684.00;;;6.52;100.00
11621;BME280;5866;49.094;11.900;2024-01-30T08:27:06;97671.13;;;7.25;100.00
11621;BME280;5866;49.094;11.900;2024-01-30T08:29:36;97671.41;;;7.58;100.00
11621;BME280;5866;49.094;11.900;2024-01-30T08:32:04;97672.88;;;7.62;97.05
11621;BME280;5866;49.094;11.900;2024-01-30T08:34:32;97672.72;;;8.12;94.17
11621;BME280;5866;49.094;11.900;2024-01-30T08:37:00;97678.84;;;8.25;88.81
11621;BME280;5866;49.094;11.900;2024-01-30T08:39:28;97683.16;;;8.26;85.08
11621;BME280;5866;49.094;11.900;2024-01-30T08:41:56;97674.78;;;8.32;83.92
11621;BME280;5866;49.094;11.900;2024-01-30T08:44:24;97675.66;;;8.20;82.33
11621;BME280;5866;49.094;11.900;2024-01-30T08:46:52;97678.41;;;8.31;82.06
11621;BME280;5866;49.094;11.900;2024-01-30T08:49:21;97682.97;;;8.40;79.85
11621;BME280;5866;49.094;11.900;2024-01-30T08:51:49;97674.69;;;8.68;78.62
11621;BME280;5866;49.094;11.900;2024-01-30T08:54:17;97676.50;;;9.03;77.02
11621;BME280;5866;49.094;11.900;2024-01-30T08:56:45;97677.63;;;9.44;74.19
11621;BME280;5866;49.094;11.900;2024-01-30T08:59:14;97676.53;;;9.36;71.25
11621;BME280;5866;49.094;11.900;2024-01-30T09:01:41;97679.19;;;9.36;70.10
11621;BME280;5866;49.094;11.900;2024-01-30T09:04:25;97674.09;;;9.33;69.16
11621;BME280;5866;49.094;11.900;2024-01-30T09:06:53;97680.03;;;9.58;69.01
11621;BME280;5866;49.094;11.900;2024-01-30T09:09:20;97674.84;;;9.46;68.00
11621;BME280;5866;49.094;11.900;2024-01-30T09:11:48;97673.16;;;9.34;67.39
11621;BME280;5866;49.094;11.900;2024-01-30T09:14:17;97672.53;;;9.19;68.41
11621;BME280;5866;49.094;11.900;2024-01-30T09:16:45;97682.56;;;9.38;68.04
11621;BME280;5866;49.094;11.900;2024-01-30T09:19:14;97686.16;;;9.92;67.79
11621;BME280;5866;49.094;11.900;2024-01-30T09:21:42;97688.66;;;10.05;64.29
11621;BME280;5866;49.094;11.900;2024-01-30T09:24:10;97686.31;;;10.45;64.17
11621;BME280;5866;49.094;11.900;2024-01-30T09:26:37;97674.22;;;10.52;61.95
11621;BME280;5866;49.094;11.900;2024-01-30T09:29:05;97668.09;;;11.34;62.03
11621;BME280;5866;49.094;11.900;2024-01-30T09:31:34;97676.03;;;10.83;60.82
11621;BME280;5866;49.094;11.900;2024-01-30T09:34:01;97676.13;;;11.43;60.74
11621;BME280;5866;49.094;11.900;2024-01-30T09:36:29;97674.53;;;11.61;58.41
11621;BME280;5866;49.094;11.900;2024-01-30T09:38:56;97671.91;;;12.01;55.99
11621;BME280;5866;49.094;11.900;2024-01-30T09:41:24;97669.16;;;12.22;55.97
11621;BME280;5866;49.094;11.900;2024-01-30T09:43:54;97676.47;;;12.48;54.78
11621;BME280;5866;49.094;11.900;2024-01-30T09:46:26;97672.16;;;13.14;54.16
11621;BME280;5866;49.094;11.900;2024-01-30T09:48:57;97672.25;;;13.41;52.34
11621;BME280;5866;49.094;11.900;2024-01-30T09:51:26;97670.94;;;13.92;51.81
11621;BME280;5866;49.094;11.900;2024-01-30T09:53:55;97685.94;;;13.66;50.33
11621;BME280;5866;49.094;11.900;2024-01-30T09:56:23;97677.06;;;13.00;51.22
11621;BME280;5866;49.094;11.900;2024-01-30T09:58:51;97690.34;;;13.47;51.36
11621;BME280;5866;49.094;11.900;2024-01-30T10:01:18;97682.06;;;13.50;50.72
11621;BME280;5866;49.094;11.900;2024-01-30T10:03:46;97684.66;;;13.70;49.72
11621;BME280;5866;49.094;11.900;2024-01-30T10:06:16;97682.22;;;13.39;50.35
11621;BME280;5866;49.094;11.900;2024-01-30T10:08:47;97681.25;;;12.45;51.69
11621;BME280;5866;49.094;11.900;2024-01-30T10:11:14;97681.81;;;12.39;52.28
11621;BME280;5866;49.094;11.900;2024-01-30T10:13:42;97672.69;;;12.32;52.17
11621;BME280;5866;49.094;11.900;2024-01-30T10:16:09;97669.88;;;11.74;52.80
11621;BME280;5866;49.094;11.900;2024-01-30T10:18:37;97668.44;;;11.19;54.29
11621;BME280;5866;49.094;11.900;2024-01-30T10:21:08;97669.75;;;10.84;55.85
11621;BME280;5866;49.094;11.900;2024-01-30T10:23:38;97661.31;;;10.79;57.05
11621;BME280;5866;49.094;11.900;2024-01-30T10:26:07;97664.78;;;10.59;57.19
11621;BME280;5866;49.094;11.900;2024-01-30T10:28:34;97662.72;;;10.30;58.08
11621;BME280;5866;49.094;11.900;2024-01-30T10:31:02;97652.75;;;10.75;57.52
11621;BME280;5866;49.094;11.900;2024-01-30T10:33:32;97656.97;;;10.78;57.33
11621;BME280;5866;49.094;11.900;2024-01-30T10:36:01;97646.69;;;11.05;56.95
11621;BME280;5866;49.094;11.900;2024-01-30T10:38:30;97654.28;;;11.09;56.35
11621;BME280;5866;49.094;11.900;2024-01-30T10:41:00;97648.66;;;11.33;55.69
11621;BME280;5866;49.094;11.900;2024-01-30T10:43:31;97649.56;;;11.43;55.39
11621;BME280;5866;49.094;11.900;2024-01-30T10:46:06;97649.00;;;11.19;56.01
11621;BME280;5866;49.094;11.900;2024-01-30T10:48:42;97643.19;;;10.63;57.21
11621;BME280;5866;49.094;11.900;2024-01-30T10:51:11;97648.75;;;10.81;57.46
11621;BME280;5866;49.094;11.900;2024-01-30T10:53:41;97653.09;;;10.82;57.47
11621;BME280;5866;49.094;11.900;2024-01-30T10:56:10;97647.22;;;11.29;57.36
11621;BME280;5866;49.094;11.900;2024-01-30T10:58:38;97634.41;;;11.34;55.93
11621;BME280;5866;49.094;11.900;2024-01-30T11:01:07;97641.31;;;11.46;55.58
11621;BME280;5866;49.094;11.900;2024-01-30T11:03:35;97640.00;;;11.91;54.13
11621;BME280;5866;49.094;11.900;2024-01-30T11:06:03;97639.00;;;11.92;53.94
11621;BME280;5866;49.094;11.900;2024-01-30T11:08:32;97624.84;;;11.82;54.00
11621;BME280;5866;49.094;11.900;2024-01-30T11:10:59;97628.84;;;11.67;54.63
11621;BME280;5866;49.094;11.900;2024-01-30T11:13:28;97629.50;;;11.30;54.79
11621;BME280;5866;49.094;11.900;2024-01-30T11:16:00;97622.16;;;10.92;55.34
11621;BME280;5866;49.094;11.900;2024-01-30T11:18:29;97633.59;;;10.51;57.11
11621;BME280;5866;49.094;11.900;2024-01-30T11:20:57;97631.94;;;11.12;56.36
11621;BME280;5866;49.094;11.900;2024-01-30T11:23:27;97625.53;;;11.84;55.01
11621;BME280;5866;49.094;11.900;2024-01-30T11:25:56;97625.53;;;11.75;54.58
11621;BME280;5866;49.094;11.900;2024-01-30T11:28:24;97616.81;;;12.13;53.87
11621;BME280;5866;49.094;11.900;2024-01-30T11:31:02;97623.34;;;11.99;54.26
11621;BME280;5866;49.094;11.900;2024-01-30T11:33:34;97619.72;;;12.10;54.47
11621;BME280;5866;49.094;11.900;2024-01-30T11:36:01;97615.72;;;12.44;53.85
11621;BME280;5866;49.094;11.900;2024-01-30T11:38:33;97612.34;;;12.23;53.91
11621;BME280;5866;49.094;11.900;2024-01-30T11:41:02;97603.63;;;12.59;53.26
11621;BME280;5866;49.094;11.900;2024-01-30T11:43:30;97604.19;;;12.91;52.73
11621;BME280;5866;49.094;11.900;2024-01-30T11:46:01;97602.78;;;13.52;52.12
11621;BME280;5866;49.094;11.900;2024-01-30T11:48:29;97595.97;;;13.68;51.18
11621;BME280;5866;49.094;11.900;2024-01-30T11:50:57;97593.19;;;13.23;51.33
11621;BME280;5866;49.094;11.900;2024-01-30T11:53:25;97589.31;;;12.98;52.31
11621;BME280;5866;49.094;11.900;2024-01-30T11:55:53;97592.72;;;12.43;52.89
11621;BME280;5866;49.094;11.900;2024-01-30T11:58:24;97584.84;;;11.93;54.67
11621;BME280;5866;49.094;11.900;2024-01-30T12:00:55;97591.19;;;12.12;54.66
11621;BME280;5866;49.094;11.900;2024-01-30T12:03:24;97584.59;;;12.35;54.20
11621;BME280;5866;49.094;11.900;2024-01-30T12:05:56;97595.69;;;11.71;55.01
11621;BME280;5866;49.094;11.900;2024-01-30T12:08:25;97591.59;;;11.98;55.56
11621;BME280;5866;49.094;11.900;2024-01-30T12:10:57;97585.16;;;12.38;54.35
11621;BME280;5866;49.094;11.900;2024-01-30T12:13:25;97587.34;;;13.10;53.08
11621;BME280;5866;49.094;11.900;2024-01-30T12:15:58;97588.47;;;13.07;53.21
11621;BME280;5866;49.094;11.900;2024-01-30T12:18:27;97591.19;;;13.71;51.49
11621;BME280;5866;49.094;11.900;2024-01-30T12:20:58;97586.06;;;14.32;49.55
11621;BME280;5866;49.094;11.900;2024-01-30T12:23:26;97585.41;;;14.73;49.53
11621;BME280;5866;49.094;11.900;2024-01-30T12:25:55;97576.84;;;15.13;48.20
11621;BME280;5866;49.094;11.900;2024-01-30T12:28:22;97574.91;;;15.23;47.31
11621;BME280;5866;49.094;11.900;2024-01-30T12:30:50;97573.34;;;15.12;47.35
11621;BME280;5866;49.094;11.900;2024-01-30T12:33:18;97580.53;;;14.86;47.24
11621;BME280;5866;49.094;11.900;2024-01-30T12:35:47;97567.06;;;14.70;48.28
11621;BME280;5866;49.094;11.900;2024-01-30T12:38:28;97567.94;;;14.26;48.46
11621;BME280;5866;49.094;11.900;2024-01-30T12:40:55;97578.16;;;14.13;49.15
11621;BME280;5866;49.094;11.900;2024-01-30T12:43:25;97568.84;;;13.72;49.38
11621;BME280;5866;49.094;11.900;2024-01-30T12:46:04;97567.81;;;13.55;50.15
11621;BME280;5866;49.094;11.900;2024-01-30T12:48:32;97564.59;;;13.52;50.15
11621;BME280;5866;49.094;11.900;2024-01-30T12:51:01;97566.00;;;13.19;50.47
11621;BME280;5866;49.094;11.900;2024-01-30T12:53:29;97554.53;;;13.09;50.96
11621;BME280;5866;49.094;11.900;2024-01-30T12:55:56;97550.78;;;12.83;51.54
11621;BME280;5866;49.094;11.900;2024-01-30T12:58:24;97549.34;;;13.08;51.42
11621;BME280;5866;49.094;11.900;2024-01-30T13:00:52;97542.75;;;13.12;51.15
11621;BME280;5866;49.094;11.900;2024-01-30T13:03:20;97546.13;;;12.95;51.90
11621;BME280;5866;49.094;11.900;2024-01-30T13:05:49;97550.78;;;12.73;52.05